Time;durP1;ratioP1;P1;durP2;ratioP2;P2;SDS_P1;SDS_P2;PMS_P1;PMS_P2;Temp;Humidity;BMP_temperature;BMP_pressure;BME280_temperature;BME280_humidity;BME280_pressure;Samples;Min_cycle;Max_cycle;Signal;HPM_P1;HPM_P2
2022/09/16 00:00:59;;;;;;;6.75;2.22;;;;;;;22.02;52.90;64284.38;5005016;28;20418;-76
2022/09/16 00:03:27;;;;;;;9.93;2.05;;;;;;;22.09;48.45;64289.09;5005759;28;20226;-75
2022/09/16 00:05:54;;;;;;;4.95;1.88;;;;;;;22.54;47.86;64336.16;5004710;28;20231;-73
2022/09/16 00:08:23;;;;;;;3.78;2.40;;;;;;;22.75;45.55;64357.59;5005420;28;20203;-76
2022/09/16 00:10:51;;;;;;;7.72;2.60;;;;;;;23.18;43.85;64402.03;5004692;28;20234;-73
2022/09/16 00:13:18;;;;;;;15.05;2.50;;;;;;;23.20;45.09;64412.47;5005267;28;20484;-73
2022/09/16 00:15:49;;;;;;;11.23;2.45;;;;;;;23.04;48.72;64390.50;5003987;28;20273;-74
2022/09/16 00:18:16;;;;;;;3.17;1.88;;;;;;;22.83;50.53;64361.28;5005765;28;20187;-73
2022/09/16 00:20:44;;;;;;;4.28;2.80;;;;;;;22.63;50.69;64345.56;5004352;28;20223;-74
2022/09/16 00:23:11;;;;;;;6.68;2.45;;;;;;;22.30;51.98;64311.06;5004375;28;20274;-73
2022/09/16 00:25:38;;;;;;;5.28;2.17;;;;;;;22.19;52.03;64299.56;5004620;28;20269;-73
2022/09/16 00:28:05;;;;;;;3.05;1.98;;;;;;;22.15;52.70;64294.84;5006443;28;20242;-73
2022/09/16 00:30:32;;;;;;;2.70;2.22;;;;;;;22.02;52.93;64276.59;5012269;28;20253;-75
2022/09/16 00:33:00;;;;;;;10.02;2.53;;;;;;;21.82;52.97;64258.28;5023824;28;20233;-75
2022/09/16 00:35:27;;;;;;;4.05;2.92;;;;;;;21.78;53.57;64257.22;5024284;28;20280;-73
2022/09/16 00:37:54;;;;;;;3.90;2.00;;;;;;;21.75;54.58;64254.09;5023833;28;20204;-73
2022/09/16 00:40:21;;;;;;;7.32;2.10;;;;;;;21.62;54.41;64235.31;5024883;28;20218;-75
2022/09/16 00:42:48;;;;;;;5.35;2.03;;;;;;;21.55;54.24;64227.47;5024485;28;20252;-74
2022/09/16 00:45:17;;;;;;;6.32;2.05;;;;;;;21.44;53.97;64221.69;5024357;28;20218;-73
2022/09/16 00:47:48;;;;;;;4.45;2.00;;;;;;;21.44;55.13;64223.75;5023465;28;20423;-74
2022/09/16 00:50:23;;;;;;;3.80;2.42;;;;;;;21.46;55.11;64221.19;5024069;28;20309;-76
2022/09/16 00:52:53;;;;;;;6.75;2.45;;;;;;;21.63;49.80;64243.59;5023183;28;20226;-73
2022/09/16 00:55:23;;;;;;;10.20;2.28;;;;;;;21.77;51.88;64255.66;5025139;28;20218;-75
2022/09/16 00:57:51;;;;;;;10.65;2.08;;;;;;;21.75;52.35;64256.66;5023745;28;20192;-73
2022/09/16 01:00:18;;;;;;;8.88;2.50;;;;;;;21.75;52.91;64256.16;5023612;28;20345;-74
2022/09/16 01:02:47;;;;;;;4.63;2.40;;;;;;;21.67;53.36;64245.19;5023548;28;20217;-73
2022/09/16 01:05:18;;;;;;;7.15;2.30;;;;;;;21.70;54.00;64248.84;5023295;28;20436;-74
2022/09/16 01:07:47;;;;;;;5.25;2.33;;;;;;;21.66;54.55;64244.66;5023867;28;20190;-75
2022/09/16 01:10:16;;;;;;;4.15;2.05;;;;;;;21.27;55.99;64203.41;5023733;28;20241;-74
2022/09/16 01:12:47;;;;;;;5.18;2.33;;;;;;;21.27;56.61;64203.94;5023340;28;20361;-74
2022/09/16 01:15:16;;;;;;;3.42;2.50;;;;;;;21.24;56.65;64200.28;5023252;28;20533;-76
2022/09/16 01:18:00;;;;;;;11.23;2.08;;;;;;;21.29;56.31;64203.44;5023421;28;20532;-75
2022/09/16 01:20:56;;;;;;;6.05;2.47;;;;;;;21.20;57.46;64196.63;5023173;28;20217;-74
2022/09/16 01:23:53;;;;;;;2.53;1.85;;;;;;;21.15;56.25;64191.41;5024085;28;20502;-75
2022/09/16 01:26:55;;;;;;;6.20;1.92;;;;;;;21.17;56.94;64192.97;5022929;28;20269;-72
2022/09/16 01:29:50;;;;;;;3.53;2.33;;;;;;;21.10;57.43;64185.66;4950424;28;20258;-73
2022/09/16 01:32:27;;;;;;;9.05;2.72;;;;;;;21.04;57.98;64176.78;5006109;28;20252;-75
2022/09/16 01:35:03;;;;;;;5.85;2.42;;;;;;;21.05;57.58;64178.38;5008333;28;20202;-74
2022/09/16 01:37:38;;;;;;;8.73;2.42;;;;;;;21.00;58.99;64175.22;5008439;28;20187;-75
2022/09/16 01:40:14;;;;;;;7.72;2.03;;;;;;;21.02;57.97;64175.22;5007311;28;20404;-76
2022/09/16 01:42:50;;;;;;;5.75;2.00;;;;;;;21.03;57.78;64178.88;5007246;28;20357;-74
2022/09/16 01:45:25;;;;;;;2.90;2.08;;;;;;;20.97;58.04;64170.00;5007347;28;20249;-75
2022/09/16 01:48:00;;;;;;;4.30;2.22;;;;;;;20.96;57.87;64168.94;5007892;28;20266;-75
2022/09/16 01:50:33;;;;;;;5.60;2.47;;;;;;;21.02;58.21;64180.41;5007150;28;20296;-75
2022/09/16 01:53:14;;;;;;;5.70;2.25;;;;;;;20.96;58.17;64168.94;5006856;28;20199;-76
2022/09/16 01:55:48;;;;;;;3.20;2.20;;;;;;;20.86;59.15;64155.94;5007598;28;20214;-75
2022/09/16 01:58:22;;;;;;;6.55;1.92;;;;;;;20.89;59.38;64159.06;5007402;28;20214;-75
2022/09/16 02:00:51;;;;;;;2.60;1.80;;;;;;;20.84;58.43;64156.41;5006737;28;20214;-74
2022/09/16 02:03:23;;;;;;;4.85;2.00;;;;;;;20.92;57.98;64164.25;5007909;28;20431;-73
2022/09/16 02:05:54;;;;;;;5.28;2.28;;;;;;;20.90;58.29;64162.69;5008004;28;20225;-74
2022/09/16 02:08:27;;;;;;;2.78;1.55;;;;;;;20.93;58.91;64168.41;5007074;28;20514;-74
2022/09/16 02:10:58;;;;;;;5.43;1.92;;;;;;;20.83;60.55;64152.28;5006969;28;20238;-73
2022/09/16 02:13:31;;;;;;;2.03;1.75;;;;;;;20.86;58.71;64160.56;5006579;28;20187;-74
2022/09/16 02:16:09;;;;;;;2.13;2.03;;;;;;;20.88;59.94;64162.66;5007639;28;20219;-73
2022/09/16 02:18:41;;;;;;;4.65;1.88;;;;;;;20.82;59.42;64159.50;5006166;28;20183;-73
2022/09/16 02:21:13;;;;;;;8.00;3.08;;;;;;;20.84;60.39;64158.47;5006647;28;20258;-74
2022/09/16 02:23:45;;;;;;;2.88;1.88;;;;;;;20.94;59.57;64169.44;5006487;28;20187;-73
2022/09/16 02:26:17;;;;;;;4.93;2.03;;;;;;;20.85;59.85;64157.47;5006193;28;20219;-74
2022/09/16 02:28:48;;;;;;;8.25;2.13;;;;;;;20.84;60.33;64158.47;5007111;28;20214;-76
2022/09/16 02:31:16;;;;;;;5.22;2.10;;;;;;;20.85;60.15;64160.03;5019699;28;20226;-74
2022/09/16 02:33:47;;;;;;;5.75;2.30;;;;;;;20.83;60.06;64152.28;5026515;28;20225;-75
2022/09/16 02:36:19;;;;;;;2.55;1.95;;;;;;;20.80;60.50;64154.81;5024834;28;20498;-73
2022/09/16 02:38:51;;;;;;;6.22;2.30;;;;;;;20.72;62.16;64151.13;5026159;28;20186;-73
2022/09/16 02:41:18;;;;;;;10.32;2.22;;;;;;;20.65;61.44;64136.59;5026616;28;20229;-75
2022/09/16 02:43:45;;;;;;;4.05;2.10;;;;;;;20.66;61.08;64140.22;5025602;28;20258;-72
2022/09/16 02:46:23;;;;;;;4.75;1.92;;;;;;;20.50;62.86;64118.34;5025159;28;20287;-76
2022/09/16 02:48:58;;;;;;;5.57;2.17;;;;;;;20.47;62.88;64120.38;5026381;28;20198;-75
2022/09/16 02:51:32;;;;;;;7.22;2.15;;;;;;;20.52;62.98;64125.59;5025563;28;20241;-75
2022/09/16 02:54:06;;;;;;;4.35;1.83;;;;;;;20.43;63.40;64119.31;5026188;28;20197;-74
2022/09/16 02:56:35;;;;;;;8.25;1.88;;;;;;;20.45;63.16;64118.81;5025670;28;20217;-73
2022/09/16 02:59:04;;;;;;;4.80;1.92;;;;;;;20.40;62.29;64113.59;5025902;28;20213;-74
2022/09/16 03:01:36;;;;;;;4.82;2.08;;;;;;;20.40;62.82;64110.47;5024960;28;20229;-75
2022/09/16 03:04:05;;;;;;;3.65;1.85;;;;;;;20.41;62.99;64114.13;5026212;28;20202;-75
2022/09/16 03:06:34;;;;;;;7.70;2.00;;;;;;;20.40;63.05;64111.00;5024953;28;20222;-74
2022/09/16 03:09:04;;;;;;;3.88;2.00;;;;;;;20.43;63.26;64116.22;5027114;28;20202;-74
2022/09/16 03:11:49;;;;;;;6.50;2.15;;;;;;;20.52;62.93;64123.00;5011045;28;20396;-74
2022/09/16 03:14:33;;;;;;;9.63;1.95;;;;;;;20.58;61.27;64129.28;5025586;28;20426;-72
2022/09/16 03:17:11;;;;;;;7.30;1.90;;;;;;;20.46;60.45;64117.28;5025738;28;20225;-74
2022/09/16 03:19:50;;;;;;;6.80;1.88;;;;;;;20.61;60.71;64132.41;5026278;28;20249;-74
2022/09/16 03:22:27;;;;;;;2.25;2.00;;;;;;;20.73;60.58;64144.41;5025829;28;20193;-73
2022/09/16 03:25:05;;;;;;;5.47;2.38;;;;;;;20.74;60.31;64143.41;5030257;28;20202;-74
2022/09/16 03:27:40;;;;;;;7.47;1.95;;;;;;;20.86;60.10;64161.09;5026086;28;20196;-75
2022/09/16 03:30:10;;;;;;;7.60;2.08;;;;;;;20.88;60.85;64160.06;5027980;28;20451;-76
2022/09/16 03:32:42;;;;;;;6.88;1.98;;;;;;;20.81;61.53;64153.28;5027447;28;20216;-75
2022/09/16 03:35:13;;;;;;;2.47;1.80;;;;;;;20.84;61.67;64159.00;5027211;28;20527;-75
2022/09/16 03:37:42;;;;;;;5.28;2.72;;;;;;;20.87;59.85;64156.97;5026529;28;20482;-75
2022/09/16 03:40:12;;;;;;;13.75;2.35;;;;;;;20.90;59.66;64162.69;5027718;28;20214;-75
2022/09/16 03:42:40;;;;;;;5.35;2.00;;;;;;;20.98;58.51;64171.06;5024741;28;20217;-75
2022/09/16 03:45:08;;;;;;;2.47;1.90;;;;;;;20.98;59.28;64176.25;5024767;28;20544;-75
2022/09/16 03:47:34;;;;;;;4.93;2.30;;;;;;;20.99;59.22;64177.28;5024194;28;20428;-74
2022/09/16 03:50:02;;;;;;;3.58;2.22;;;;;;;21.01;58.72;64176.78;5024364;28;20287;-74
2022/09/16 03:52:30;;;;;;;9.43;2.60;;;;;;;20.99;59.79;64174.16;5024513;28;20237;-74
2022/09/16 03:54:57;;;;;;;5.00;2.25;;;;;;;20.98;60.43;64171.06;5024604;28;20232;-74
2022/09/16 03:57:26;;;;;;;6.13;2.25;;;;;;;20.97;59.95;64172.06;5025275;28;20249;-74
2022/09/16 03:59:53;;;;;;;5.93;2.45;;;;;;;20.95;59.32;64167.38;5025159;28;20194;-73
2022/09/16 04:02:20;;;;;;;11.65;2.72;;;;;;;20.87;60.31;64162.13;5023911;28;20240;-74
2022/09/16 04:04:47;;;;;;;7.25;4.00;;;;;;;20.90;60.45;64162.16;5024920;28;20262;-74
2022/09/16 04:07:13;;;;;;;6.68;3.63;;;;;;;20.81;60.32;64155.88;5023868;28;20198;-73
2022/09/16 04:09:42;;;;;;;3.70;2.40;;;;;;;20.75;59.92;64149.09;5025928;28;20237;-75
2022/09/16 04:12:08;;;;;;;8.90;2.85;;;;;;;20.74;60.02;64148.56;5024313;28;20557;-74
2022/09/16 04:14:35;;;;;;;2.58;2.17;;;;;;;20.69;60.01;64143.34;5025022;28;20219;-75
2022/09/16 04:17:03;;;;;;;5.70;2.63;;;;;;;20.71;60.47;64137.66;5024000;28;20214;-73
2022/09/16 04:19:30;;;;;;;3.88;2.47;;;;;;;20.58;60.64;64129.81;5024699;28;20198;-75
2022/09/16 04:21:57;;;;;;;9.90;2.08;;;;;;;20.56;61.75;64129.78;5024151;28;20226;-73
2022/09/16 04:24:24;;;;;;;5.32;2.47;;;;;;;20.53;61.98;64124.06;5025155;28;20198;-75
2022/09/16 04:26:52;;;;;;;7.72;2.53;;;;;;;20.47;62.75;64117.78;5024577;28;20264;-75
2022/09/16 04:29:19;;;;;;;12.45;3.38;;;;;;;20.48;63.01;64116.25;5025637;28;20198;-74
2022/09/16 04:31:45;;;;;;;11.00;3.47;;;;;;;20.48;62.68;64116.75;5005979;28;20234;-73
2022/09/16 04:34:13;;;;;;;5.90;2.72;;;;;;;20.52;62.85;64126.13;5004896;28;20211;-76
2022/09/16 04:36:40;;;;;;;5.70;3.25;;;;;;;20.51;62.86;64117.31;5003775;28;20218;-74
2022/09/16 04:39:07;;;;;;;8.63;3.60;;;;;;;20.50;62.19;64120.94;5005541;28;20210;-75
2022/09/16 04:41:34;;;;;;;4.25;3.17;;;;;;;20.53;61.45;64124.59;5003674;28;20230;-73
2022/09/16 04:44:02;;;;;;;4.65;2.58;;;;;;;20.58;61.69;64131.88;5005241;28;20207;-74
2022/09/16 04:46:31;;;;;;;6.00;2.20;;;;;;;20.66;61.32;64142.81;5003795;28;20219;-74
2022/09/16 04:48:58;;;;;;;7.35;2.72;;;;;;;20.72;62.38;64141.31;5004887;28;20198;-73
2022/09/16 04:51:27;;;;;;;4.57;2.33;;;;;;;20.57;62.29;64128.75;5003447;28;20234;-74
2022/09/16 04:53:55;;;;;;;5.32;2.80;;;;;;;20.66;62.76;64140.22;5008591;28;20211;-75
2022/09/16 04:56:24;;;;;;;4.82;2.28;;;;;;;20.72;62.36;64143.38;5003725;28;20222;-75
2022/09/16 04:58:53;;;;;;;4.97;2.50;;;;;;;20.75;62.63;64147.03;5004728;28;20237;-75
2022/09/16 05:01:24;;;;;;;10.20;2.25;;;;;;;20.84;60.95;64161.59;5004617;28;20222;-74
2022/09/16 05:03:53;;;;;;;6.63;1.90;;;;;;;20.92;60.13;64161.66;5003342;28;20212;-74
2022/09/16 05:06:22;;;;;;;6.15;2.63;;;;;;;20.93;62.49;64160.13;5004804;28;20574;-74
2022/09/16 05:08:49;;;;;;;6.60;2.83;;;;;;;21.04;61.30;64176.78;5004477;28;20236;-74
2022/09/16 05:11:19;;;;;;;5.18;2.42;;;;;;;21.11;62.20;64184.09;5005071;28;20238;-74
2022/09/16 05:13:46;;;;;;;6.65;2.80;;;;;;;21.04;61.89;64179.91;5003092;28;20257;-75
2022/09/16 05:16:14;;;;;;;4.50;2.75;;;;;;;21.31;61.97;64205.00;5004145;28;20348;-75
2022/09/16 05:18:45;;;;;;;34.47;9.13;;;;;;;21.44;57.82;64218.56;5004863;28;20556;-74
2022/09/16 05:21:14;;;;;;;9.93;3.47;;;;;;;21.62;58.76;64240.47;5005554;28;20219;-74
2022/09/16 05:23:41;;;;;;;11.57;2.53;;;;;;;21.78;57.48;64252.03;5004883;28;20199;-74
2022/09/16 05:26:10;;;;;;;3.83;1.98;;;;;;;22.01;56.49;64280.22;5004284;28;20214;-75
2022/09/16 05:28:37;;;;;;;3.60;2.28;;;;;;;22.18;55.84;64288.13;5003676;28;20203;-75
2022/09/16 05:31:11;;;;;;;6.55;2.22;;;;;;;22.38;55.27;64318.91;5015604;28;20237;-75
2022/09/16 05:33:39;;;;;;;6.13;2.67;;;;;;;22.57;52.71;64336.19;5022857;28;20280;-74
2022/09/16 05:36:10;;;;;;;5.43;2.47;;;;;;;22.65;52.46;64347.13;5024560;28;20218;-76
2022/09/16 05:38:38;;;;;;;6.47;2.67;;;;;;;22.80;53.26;64360.22;5023749;28;20196;-75
2022/09/16 05:41:06;;;;;;;7.88;3.17;;;;;;;22.92;52.45;64374.84;5024687;28;20232;-75
2022/09/16 05:43:33;;;;;;;6.25;2.80;;;;;;;23.09;51.66;64392.63;5022840;28;20428;-75
2022/09/16 05:46:01;;;;;;;5.57;2.28;;;;;;;23.22;50.23;64406.22;5023373;28;20228;-75
2022/09/16 05:48:28;;;;;;;4.85;2.47;;;;;;;23.31;49.58;64415.66;5023129;28;20209;-74
2022/09/16 05:50:58;;;;;;;5.78;2.22;;;;;;;23.11;49.90;64397.84;5022516;28;20293;-74
2022/09/16 05:53:28;;;;;;;7.80;2.70;;;;;;;23.16;49.42;64400.47;5022999;28;20202;-75
2022/09/16 05:55:57;;;;;;;8.82;2.58;;;;;;;23.24;48.87;64410.91;5025140;28;20290;-75
2022/09/16 05:58:24;;;;;;;6.32;2.03;;;;;;;23.33;49.04;64417.75;5022988;28;20209;-74
2022/09/16 06:00:51;;;;;;;6.88;2.15;;;;;;;23.30;48.02;64415.13;5023450;28;20230;-74
2022/09/16 06:03:18;;;;;;;6.03;1.95;;;;;;;23.06;48.47;64386.88;5022486;28;20198;-73
2022/09/16 06:05:45;;;;;;;6.07;2.42;;;;;;;23.10;49.92;64389.00;5024600;28;20426;-75
2022/09/16 06:08:12;;;;;;;4.57;2.00;;;;;;;23.06;50.58;64394.69;5023059;28;20265;-74
2022/09/16 06:10:41;;;;;;;5.93;2.28;;;;;;;23.07;50.44;64387.94;5023441;28;20387;-74
2022/09/16 06:13:08;;;;;;;7.03;3.17;;;;;;;23.00;50.03;64383.75;5023825;28;20202;-74
2022/09/16 06:15:35;;;;;;;6.13;2.15;;;;;;;22.92;49.57;64377.47;5023343;28;20224;-74
2022/09/16 06:18:02;;;;;;;6.80;2.00;;;;;;;22.63;49.80;64342.44;5024538;28;20198;-74
2022/09/16 06:20:29;;;;;;;6.80;2.17;;;;;;;22.66;49.61;64340.91;5026938;28;20222;-74
2022/09/16 06:22:56;;;;;;;6.60;2.35;;;;;;;22.86;49.25;64364.44;5027119;28;20202;-75
2022/09/16 06:25:23;;;;;;;4.05;1.60;;;;;;;22.96;49.92;64379.56;5026925;28;20527;-75
2022/09/16 06:27:51;;;;;;;9.60;2.00;;;;;;;22.97;48.97;64380.09;5026676;28;20198;-74
2022/09/16 06:30:18;;;;;;;5.32;2.20;;;;;;;23.12;49.38;64393.16;5021151;28;20221;-76
2022/09/16 06:32:45;;;;;;;4.10;1.83;;;;;;;23.16;49.77;64402.56;5006813;28;20258;-75
2022/09/16 06:35:12;;;;;;;5.57;2.47;;;;;;;23.22;49.72;64406.22;5007158;28;20266;-77
2022/09/16 06:37:39;;;;;;;7.03;3.08;;;;;;;23.32;49.14;64412.03;5006159;28;20194;-76
2022/09/16 06:40:07;;;;;;;6.57;2.50;;;;;;;23.47;49.02;64425.13;5006681;28;20219;-75
2022/09/16 06:42:34;;;;;;;3.10;1.88;;;;;;;23.57;48.55;64443.38;5006154;28;20209;-75
2022/09/16 06:45:03;;;;;;;11.75;2.67;;;;;;;23.44;49.84;64427.19;5006484;28;20281;-76
2022/09/16 06:47:32;;;;;;;6.10;2.30;;;;;;;23.60;48.65;64443.94;5007074;28;20203;-73
2022/09/16 06:49:59;;;;;;;6.75;2.45;;;;;;;23.49;48.99;64435.00;5006268;28;20226;-76
2022/09/16 06:52:26;;;;;;;9.00;3.03;;;;;;;23.60;49.32;64443.94;5006179;28;20273;-76
2022/09/16 06:54:53;;;;;;;6.57;2.15;;;;;;;23.70;49.27;64457.00;5006160;28;20198;-75
2022/09/16 06:57:22;;;;;;;6.35;2.58;;;;;;;23.86;48.81;64471.13;5006361;28;20575;-74
2022/09/16 06:59:49;;;;;;;10.77;2.63;;;;;;;23.67;48.56;64455.94;5005916;28;20482;-75
2022/09/16 07:02:18;;;;;;;7.20;2.63;;;;;;;23.59;48.87;64442.38;5005767;28;20198;-74
2022/09/16 07:04:45;;;;;;;9.70;2.33;;;;;;;23.78;48.68;64462.75;5006325;28;20198;-74
2022/09/16 07:07:12;;;;;;;7.28;2.22;;;;;;;23.86;48.14;64475.81;5006698;28;20229;-74
2022/09/16 07:09:40;;;;;;;6.25;2.78;;;;;;;23.97;48.83;64482.66;5006273;28;20385;-75
2022/09/16 07:12:07;;;;;;;3.97;2.10;;;;;;;24.02;47.98;64484.25;5005764;28;20224;-74
2022/09/16 07:14:34;;;;;;;6.68;2.13;;;;;;;23.91;49.01;64478.44;5007055;28;20198;-75
2022/09/16 07:17:07;;;;;;;4.10;2.05;;;;;;;23.97;49.16;64479.50;5025295;28;20214;-75
2022/09/16 07:19:36;;;;;;;7.10;2.35;;;;;;;24.14;48.90;64499.94;5025489;28;20197;-75
2022/09/16 07:22:03;;;;;;;3.58;1.85;;;;;;;24.21;49.31;64509.34;5025714;28;20194;-75
2022/09/16 07:24:30;;;;;;;11.05;2.90;;;;;;;24.50;49.24;64534.50;5025085;28;20233;-75
2022/09/16 07:26:57;;;;;;;3.45;2.13;;;;;;;24.73;49.37;64561.72;5024834;28;20240;-75
2022/09/16 07:29:24;;;;;;;10.52;2.20;;;;;;;24.56;47.62;64543.91;5024412;28;20208;-74
2022/09/16 07:31:51;;;;;;;6.20;2.58;;;;;;;24.44;47.33;64533.94;5025357;28;20233;-74
2022/09/16 07:34:18;;;;;;;6.22;2.10;;;;;;;24.63;48.42;64558.53;5024730;28;20194;-73
2022/09/16 07:36:49;;;;;;;7.35;2.13;;;;;;;24.83;46.70;64574.28;5024577;28;20494;-76
2022/09/16 07:39:18;;;;;;;7.38;2.55;;;;;;;24.98;45.73;64590.00;5025155;28;20198;-74
2022/09/16 07:41:47;;;;;;;3.97;2.33;;;;;;;24.99;45.44;64588.44;5024126;28;20272;-74
2022/09/16 07:44:16;;;;;;;4.32;2.20;;;;;;;24.76;45.20;64570.09;5025304;28;20235;-76
2022/09/16 07:46:43;;;;;;;7.53;3.47;;;;;;;24.82;45.15;64573.22;5024753;28;20530;-74
2022/09/16 07:49:13;;;;;;;12.23;2.75;;;;;;;25.01;45.03;64593.66;5025679;28;20217;-75
2022/09/16 07:51:40;;;;;;;6.78;1.77;;;;;;;24.84;44.69;64575.84;5024901;28;20563;-75
2022/09/16 07:54:11;;;;;;;9.80;2.80;;;;;;;24.81;45.09;64570.13;5023973;28;20202;-75
2022/09/16 07:56:39;;;;;;;6.63;2.80;;;;;;;24.91;44.62;64580.06;5024574;28;20456;-75
2022/09/16 07:59:10;;;;;;;3.88;2.70;;;;;;;25.16;44.45;64605.72;5024685;28;20206;-78
2022/09/16 08:01:37;;;;;;;7.22;2.88;;;;;;;25.43;43.70;64634.03;5024739;28;20463;-75
2022/09/16 08:04:04;;;;;;;9.65;2.67;;;;;;;25.82;42.79;64675.41;5025241;28;20248;-76
2022/09/16 08:06:32;;;;;;;8.70;2.85;;;;;;;25.86;43.43;64684.31;5025006;28;20265;-75
2022/09/16 08:09:01;;;;;;;4.25;2.05;;;;;;;26.03;42.97;64697.44;5024645;28;20277;-75
2022/09/16 08:11:31;;;;;;;7.97;2.55;;;;;;;26.12;43.01;64706.88;5024201;28;20244;-76
2022/09/16 08:13:58;;;;;;;6.10;2.55;;;;;;;26.34;42.30;64731.50;5024411;28;20208;-75
2022/09/16 08:16:25;;;;;;;7.15;2.20;;;;;;;26.52;41.51;64747.78;5023903;28;20218;-74
2022/09/16 08:18:55;;;;;;;5.90;2.60;;;;;;;26.39;41.43;64736.75;5024297;28;20194;-73
2022/09/16 08:21:24;;;;;;;10.07;3.35;;;;;;;26.44;42.21;64744.63;5025154;28;20397;-75
2022/09/16 08:23:51;;;;;;;3.50;2.33;;;;;;;26.36;42.46;64731.53;5024217;28;20202;-74
2022/09/16 08:26:20;;;;;;;7.47;2.25;;;;;;;26.50;43.38;64743.59;5023604;28;20224;-76
2022/09/16 08:28:49;;;;;;;5.10;2.58;;;;;;;26.76;41.45;64778.72;5024556;28;20256;-74
2022/09/16 08:31:17;;;;;;;3.47;2.80;;;;;;;27.19;40.71;64821.22;5023507;28;20214;-74
2022/09/16 08:33:44;;;;;;;5.80;2.67;;;;;;;27.57;40.50;64860.03;5024304;28;20209;-75
2022/09/16 08:36:14;;;;;;;6.20;2.33;;;;;;;27.99;40.58;64904.66;5023761;28;20218;-75
2022/09/16 08:38:42;;;;;;;5.65;2.85;;;;;;;27.88;39.89;64895.19;5023271;28;20186;-75
2022/09/16 08:41:25;;;;;;;7.55;2.08;;;;;;;28.07;39.56;64915.69;5024442;28;20230;-75
2022/09/16 08:44:03;;;;;;;4.57;2.70;;;;;;;28.34;41.15;64940.88;5023955;28;20206;-76
2022/09/16 08:46:35;;;;;;;11.32;2.88;;;;;;;28.27;40.16;64925.69;5024364;28;20218;-79
2022/09/16 08:49:13;;;;;;;6.65;2.92;;;;;;;28.14;39.71;64919.91;5024759;28;20224;-75
2022/09/16 08:51:40;;;;;;;8.40;2.90;;;;;;;28.56;39.09;64958.75;5023589;28;20238;-77
2022/09/16 08:54:13;;;;;;;12.95;2.75;;;;;;;28.44;39.57;64949.28;5025398;28;20209;-75
2022/09/16 08:56:40;;;;;;;14.18;3.42;;;;;;;28.69;38.70;64974.50;5025013;28;20217;-75
2022/09/16 08:59:17;;;;;;;10.15;2.63;;;;;;;29.10;39.93;65023.38;5023860;28;20605;-75
2022/09/16 09:01:50;;;;;;;6.32;2.95;;;;;;;29.27;38.26;65038.09;5024687;28;20218;-75
2022/09/16 09:04:17;;;;;;;6.88;3.05;;;;;;;29.44;37.30;65056.47;5023226;28;20202;-74
2022/09/16 09:06:54;;;;;;;7.25;2.55;;;;;;;29.65;36.72;65074.88;5023487;28;20229;-76
2022/09/16 09:09:33;;;;;;;10.88;2.53;;;;;;;29.61;36.08;65071.19;5022975;28;20499;-76
2022/09/16 09:12:07;;;;;;;5.55;2.88;;;;;;;29.42;36.12;65057.00;5023893;28;20404;-76
2022/09/16 09:14:51;;;;;;;4.18;2.40;;;;;;;29.03;38.39;65013.38;5023638;28;20200;-74
2022/09/16 09:17:25;;;;;;;8.50;2.35;;;;;;;29.33;37.67;65047.56;5024472;28;20214;-76
2022/09/16 09:20:05;;;;;;;10.15;2.83;;;;;;;29.53;37.54;65062.78;5023500;28;20201;-76
2022/09/16 09:22:49;;;;;;;8.13;2.90;;;;;;;29.74;37.93;65086.97;5023155;28;20524;-76
2022/09/16 09:25:26;;;;;;;9.98;3.22;;;;;;;29.56;36.57;65070.66;5022971;28;20225;-75
2022/09/16 09:28:05;;;;;;;8.98;3.38;;;;;;;29.69;38.48;65084.88;5023965;28;20265;-73
2022/09/16 09:30:36;;;;;;;14.02;3.10;;;;;;;29.36;38.26;65052.78;5016632;28;20250;-74
2022/09/16 09:33:22;;;;;;;3.47;2.45;;;;;;;29.22;38.56;65024.97;5003303;28;20501;-76
2022/09/16 09:36:30;;;;;;;6.45;2.78;;;;;;;28.23;39.07;64927.25;5004136;28;20235;-74
2022/09/16 09:39:15;;;;;;;10.18;3.13;;;;;;;28.22;39.17;64936.16;4983941;28;20202;-75
2022/09/16 09:41:48;;;;;;;9.32;3.17;;;;;;;28.29;39.87;64938.25;5003054;28;20242;-75
2022/09/16 09:44:33;;;;;;;9.32;3.65;;;;;;;28.51;39.16;64958.25;5003471;28;20265;-75
2022/09/16 09:47:08;;;;;;;8.35;3.72;;;;;;;28.91;38.49;64997.63;5004282;28;20225;-77
2022/09/16 09:49:39;;;;;;;12.88;3.55;;;;;;;28.94;37.94;65003.41;5003185;28;20199;-74
2022/09/16 09:52:13;;;;;;;16.40;3.45;;;;;;;28.46;38.90;64952.97;5004164;28;20234;-73
2022/09/16 09:54:47;;;;;;;20.75;3.70;;;;;;;28.10;39.38;64913.06;5006886;28;20203;-76
2022/09/16 09:57:20;;;;;;;9.95;3.53;;;;;;;27.52;41.10;64860.03;5007326;28;20501;-74
2022/09/16 09:59:51;;;;;;;12.02;3.70;;;;;;;27.45;41.26;64847.44;5006768;28;20256;-74
2022/09/16 10:02:21;;;;;;;7.45;2.95;;;;;;;27.26;41.76;64825.94;5007628;28;20194;-75
2022/09/16 10:04:49;;;;;;;11.60;4.32;;;;;;;27.34;41.26;64835.91;5006615;28;20198;-78
2022/09/16 10:07:19;;;;;;;13.55;3.80;;;;;;;27.50;40.53;64855.31;5007220;28;20270;-74
2022/09/16 10:09:51;;;;;;;11.43;3.50;;;;;;;27.56;40.75;64856.91;5006612;28;20464;-77
2022/09/16 10:12:28;;;;;;;5.72;3.13;;;;;;;27.39;41.60;64846.91;5007357;28;20235;-74
2022/09/16 10:14:54;;;;;;;13.95;3.47;;;;;;;27.33;41.82;64832.78;5006727;28;20209;-75
2022/09/16 10:17:23;;;;;;;6.35;3.42;;;;;;;27.12;42.90;64813.34;5007475;28;20246;-74
2022/09/16 10:19:55;;;;;;;11.60;4.22;;;;;;;26.78;43.50;64782.91;5006548;28;20195;-76
2022/09/16 10:22:26;;;;;;;8.68;3.25;;;;;;;26.34;44.77;64732.03;5006929;28;20195;-75
2022/09/16 10:24:55;;;;;;;8.35;2.60;;;;;;;26.04;45.84;64695.38;5006604;28;20207;-74
2022/09/16 10:27:24;;;;;;;18.48;3.50;;;;;;;25.71;46.83;64671.72;5007453;28;20504;-74
2022/09/16 10:30:04;;;;;;;9.85;3.28;;;;;;;24.90;58.43;64581.63;5008263;28;20199;-75
2022/09/16 10:32:39;;;;;;;8.55;3.20;;;;;;;24.29;59.39;64509.91;5026842;28;20526;-73
2022/09/16 10:35:08;;;;;;;13.93;3.72;;;;;;;23.47;72.13;64435.00;5026317;28;20263;-75
2022/09/16 10:37:35;;;;;;;5.82;2.80;;;;;;;22.67;79.23;64351.84;5025891;28;20193;-72
2022/09/16 10:40:05;;;;;;;7.18;3.13;;;;;;;22.07;76.67;64289.59;5025892;28;20438;-74
2022/09/16 10:42:33;;;;;;;4.07;1.65;;;;;;;21.45;84.01;64217.53;5026535;28;20249;-77
2022/09/16 10:45:09;;;;;;;3.20;1.60;;;;;;;21.24;81.64;64203.41;5028272;28;20224;-74
2022/09/16 10:47:37;;;;;;;5.50;1.55;;;;;;;20.82;89.42;64151.22;5025485;28;20193;-72
2022/09/16 10:50:06;;;;;;;1.30;1.25;;;;;;;20.53;93.95;64131.81;5026666;28;20286;-74
2022/09/16 10:52:42;;;;;;;3.00;1.20;;;;;;;20.36;96.41;64112.00;5025503;28;20256;-74
2022/09/16 10:55:22;;;;;;;4.03;0.90;;;;;;;20.16;98.51;64088.56;5025733;28;20217;-73
2022/09/16 10:57:48;;;;;;;0.68;0.68;;;;;;;19.94;100.00;64057.81;5026019;28;20190;-71
2022/09/16 11:00:18;;;;;;;8.13;0.82;;;;;;;19.95;97.31;64063.53;5025469;28;20225;-71
2022/09/16 11:03:23;;;;;;;0.65;0.65;;;;;;;19.96;94.41;64069.72;5024911;28;20210;-73
2022/09/16 11:06:01;;;;;;;0.43;0.40;;;;;;;20.08;89.31;64077.06;4982483;28;20244;-71
2022/09/16 11:08:42;;;;;;;2.83;0.68;;;;;;;20.44;83.89;64117.25;5024778;28;20387;-73
2022/09/16 11:11:19;;;;;;;0.85;0.50;;;;;;;20.85;76.16;64157.47;5025047;28;20217;-71
2022/09/16 11:13:53;;;;;;;0.85;0.30;;;;;;;21.25;70.31;64201.84;5025476;28;20256;-73
2022/09/16 11:16:31;;;;;;;0.50;0.50;;;;;;;21.75;66.95;64253.56;5026748;28;20225;-73
2022/09/16 11:19:06;;;;;;;0.55;0.40;;;;;;;22.19;63.38;64296.97;5025268;28;20197;-73
2022/09/16 11:22:04;;;;;;;1.88;0.45;;;;;;;22.66;59.08;64348.19;5025222;28;20221;-73
2022/09/16 11:25:04;;;;;;;0.50;0.40;;;;;;;23.09;55.34;64390.03;5008962;28;20201;-73
2022/09/16 11:27:43;;;;;;;0.88;0.22;;;;;;;23.46;51.68;64431.34;5024952;28;20206;-74
2022/09/16 11:30:14;;;;;;;0.08;0.08;;;;;;;23.79;48.47;64469.00;5021908;28;20272;-76
2022/09/16 11:32:59;;;;;;;0.25;0.20;;;;;;;24.18;48.10;64504.13;5006881;28;20404;-73
2022/09/16 11:35:58;;;;;;;1.55;0.30;;;;;;;24.58;47.77;64546.00;5005482;28;20226;-73
2022/09/16 11:38:37;;;;;;;2.10;0.30;;;;;;;24.97;46.84;64589.47;4959022;28;20206;-75
2022/09/16 11:41:11;;;;;;;0.20;0.20;;;;;;;25.51;44.93;64640.31;5004763;28;20230;-73
2022/09/16 11:43:51;;;;;;;1.77;0.57;;;;;;;25.87;44.06;64683.25;5005742;28;20253;-73
2022/09/16 11:46:25;;;;;;;0.20;0.20;;;;;;;26.41;42.45;64736.22;5005715;28;20222;-74
2022/09/16 11:49:05;;;;;;;0.55;0.55;;;;;;;26.72;41.25;64771.38;5005015;28;20198;-73
2022/09/16 11:51:51;;;;;;;0.40;0.40;;;;;;;26.74;40.21;64773.47;5004864;28;20225;-74